Time;durP1;ratioP1;P1;durP2;ratioP2;P2;SDS_P1;SDS_P2;PMS_P1;PMS_P2;Temp;Humidity;BMP_temperature;BMP_pressure;BME280_temperature;BME280_humidity;BME280_pressure;Samples;Min_cycle;Max_cycle;Signal;HPM_P1;HPM_P2
2022/12/29 00:02:16;;;;;;;16.00;7.93;;;;;;;;;;5048000;28;20119;-71
2022/12/29 00:04:43;;;;;;;18.30;9.05;;;;;;;;;;5060834;28;20065;-71
2022/12/29 00:07:10;;;;;;;15.18;7.25;;;;;;;;;;5047488;28;20072;-71
2022/12/29 00:09:37;;;;;;;16.98;7.63;;;;;;;;;;5046496;28;20126;-71
2022/12/29 00:12:04;;;;;;;16.13;7.75;;;;;;;;;;5050455;28;20051;-71
2022/12/29 00:17:16;;;;;;;16.90;7.30;;;;;;;;;;5024669;28;20056;-70
2022/12/29 00:36:37;;;;;;;17.90;8.48;;;;;;;;;;5026987;28;20556;-72
2022/12/29 00:44:04;;;;;;;22.35;8.27;;;;;;;;;;5030868;28;20878;-72
2022/12/29 00:44:44;;;;;;;17.30;7.88;;;;;;;;;;5030999;28;20149;-71
2022/12/29 00:47:10;;;;;;;17.38;7.95;;;;;;;;;;5026076;28;20138;-73
2022/12/29 00:49:37;;;;;;;18.02;8.00;;;;;;;;;;5026377;28;20034;-72
2022/12/29 00:52:05;;;;;;;18.60;8.35;;;;;;;;;;5034254;28;20758;-71
2022/12/29 00:54:33;;;;;;;17.75;7.97;;;;;;;;;;5022744;28;20058;-72
2022/12/29 00:57:00;;;;;;;19.73;8.48;;;;;;;;;;5039986;28;20124;-72
2022/12/29 00:59:27;;;;;;;19.35;8.00;;;;;;;;;;5027047;28;20049;-72
2022/12/29 01:01:54;;;;;;;17.20;8.23;;;;;;;;;;5027611;28;20041;-71
2022/12/29 01:04:22;;;;;;;16.08;7.90;;;;;;;;;;5027189;28;20041;-72
2022/12/29 01:06:49;;;;;;;15.23;8.35;;;;;;;;;;5030416;28;20372;-71
2022/12/29 01:12:01;;;;;;;16.15;7.70;;;;;;;;;;5035361;28;20055;-72
2022/12/29 01:14:28;;;;;;;17.40;7.97;;;;;;;;;;5046532;28;20040;-71
2022/12/29 01:16:55;;;;;;;16.50;8.35;;;;;;;;;;5039713;28;20049;-72
2022/12/29 01:19:28;;;;;;;21.92;8.52;;;;;;;;;;5039313;28;20041;-71
2022/12/29 01:21:55;;;;;;;12.18;7.20;;;;;;;;;;5034415;28;20045;-72
2022/12/29 01:24:21;;;;;;;16.10;8.10;;;;;;;;;;5034890;28;20045;-71
2022/12/29 01:26:49;;;;;;;19.05;9.00;;;;;;;;;;5041390;28;20101;-71
2022/12/29 01:29:15;;;;;;;21.85;8.50;;;;;;;;;;5038835;28;20052;-72
2022/12/29 01:31:42;;;;;;;18.70;8.32;;;;;;;;;;5038427;28;20052;-72
2022/12/29 01:34:09;;;;;;;15.88;8.18;;;;;;;;;;5039068;28;20608;-72
2022/12/29 01:36:35;;;;;;;22.77;9.13;;;;;;;;;;5037029;28;20049;-72
2022/12/29 01:39:02;;;;;;;19.25;8.48;;;;;;;;;;5034854;28;20041;-71
2022/12/29 01:41:29;;;;;;;16.60;7.97;;;;;;;;;;5036493;28;20152;-72
2022/12/29 01:43:58;;;;;;;18.05;8.45;;;;;;;;;;5040329;28;20049;-72
2022/12/29 01:46:35;;;;;;;17.17;8.23;;;;;;;;;;5042007;28;20041;-71
2022/12/29 01:49:11;;;;;;;16.58;8.43;;;;;;;;;;5044007;28;20033;-71
2022/12/29 01:52:00;;;;;;;16.88;8.25;;;;;;;;;;5041324;28;20033;-72
2022/12/29 01:54:33;;;;;;;22.65;8.82;;;;;;;;;;5040836;28;20159;-72
2022/12/29 01:57:02;;;;;;;18.13;7.65;;;;;;;;;;5034230;28;20045;-70
2022/12/29 01:59:32;;;;;;;21.00;9.00;;;;;;;;;;5039800;28;20129;-70
2022/12/29 02:01:59;;;;;;;19.38;9.73;;;;;;;;;;5038034;28;20045;-72
2022/12/29 02:04:27;;;;;;;20.63;9.02;;;;;;;;;;5030050;28;20399;-72
2022/12/29 02:06:56;;;;;;;15.85;8.90;;;;;;;;;;5040628;28;20041;-72
2022/12/29 02:09:23;;;;;;;16.60;8.35;;;;;;;;;;5036782;28;20040;-71
2022/12/29 02:11:50;;;;;;;22.50;8.75;;;;;;;;;;5033563;28;20038;-70
2022/12/29 02:14:24;;;;;;;22.58;9.23;;;;;;;;;;5040455;28;20524;-74
2022/12/29 02:17:17;;;;;;;21.63;9.18;;;;;;;;;;5036283;28;20141;-70
2022/12/29 02:20:02;;;;;;;15.35;7.75;;;;;;;;;;5032843;28;20045;-71
2022/12/29 02:22:47;;;;;;;27.35;11.73;;;;;;;;;;5030187;28;20391;-71
2022/12/29 02:25:14;;;;;;;26.65;11.25;;;;;;;;;;5022838;28;20132;-72
2022/12/29 02:27:58;;;;;;;17.17;9.25;;;;;;;;;;5030476;28;20041;-71
2022/12/29 02:30:25;;;;;;;21.80;8.95;;;;;;;;;;5029535;28;20048;-71
2022/12/29 02:32:58;;;;;;;19.75;9.32;;;;;;;;;;5037790;28;20813;-70
2022/12/29 02:35:37;;;;;;;18.47;8.60;;;;;;;;;;5035757;28;20122;-69
2022/12/29 02:38:12;;;;;;;18.63;9.32;;;;;;;;;;5035059;28;20791;-71
2022/12/29 02:40:42;;;;;;;19.63;9.18;;;;;;;;;;5030630;28;20052;-71
2022/12/29 02:43:20;;;;;;;23.77;9.65;;;;;;;;;;5031633;28;20075;-71
2022/12/29 02:46:16;;;;;;;17.08;9.25;;;;;;;;;;5031224;28;20040;-71
2022/12/29 02:48:57;;;;;;;20.80;9.82;;;;;;;;;;5013433;28;20045;-71
2022/12/29 02:51:31;;;;;;;20.23;9.93;;;;;;;;;;5037656;28;20111;-70
2022/12/29 02:56:43;;;;;;;24.58;9.65;;;;;;;;;;5031605;28;20047;-71
2022/12/29 02:59:10;;;;;;;20.95;9.85;;;;;;;;;;5029112;28;20045;-69
2022/12/29 03:02:20;;;;;;;20.10;9.75;;;;;;;;;;5028649;28;20028;-70
2022/12/29 03:05:02;;;;;;;25.52;10.65;;;;;;;;;;5032192;28;20045;-71
2022/12/29 03:07:47;;;;;;;23.63;11.48;;;;;;;;;;5032233;28;20037;-73
2022/12/29 03:10:34;;;;;;;28.48;14.13;;;;;;;;;;5028497;28;20041;-71
2022/12/29 03:16:21;;;;;;;30.98;15.00;;;;;;;;;;5023168;28;20052;-72
2022/12/29 03:19:12;;;;;;;34.67;17.85;;;;;;;;;;5025148;28;20048;-71
2022/12/29 03:24:49;;;;;;;37.08;16.60;;;;;;;;;;5026714;28;20113;-71
2022/12/29 03:27:19;;;;;;;27.50;12.88;;;;;;;;;;5025064;28;20520;-69
2022/12/29 03:29:52;;;;;;;35.90;18.75;;;;;;;;;;5027020;28;20041;-68
2022/12/29 03:32:37;;;;;;;33.83;15.20;;;;;;;;;;5030484;28;20047;-75
2022/12/29 03:35:04;;;;;;;42.67;20.65;;;;;;;;;;5026063;28;20065;-70
2022/12/29 03:37:35;;;;;;;36.13;14.98;;;;;;;;;;5027232;28;20037;-70
2022/12/29 03:40:05;;;;;;;42.67;18.88;;;;;;;;;;5027738;28;20387;-70
2022/12/29 03:42:34;;;;;;;31.67;14.75;;;;;;;;;;5033111;28;20049;-71
2022/12/29 03:45:01;;;;;;;38.67;18.40;;;;;;;;;;5027782;28;20121;-71
2022/12/29 03:47:31;;;;;;;36.58;15.40;;;;;;;;;;5032243;28;20036;-71
2022/12/29 03:49:57;;;;;;;42.50;18.63;;;;;;;;;;5040078;28;20155;-70
2022/12/29 03:52:24;;;;;;;38.17;16.58;;;;;;;;;;5026566;28;20569;-70
2022/12/29 03:54:51;;;;;;;41.20;17.48;;;;;;;;;;5028967;28;20388;-70
2022/12/29 03:57:17;;;;;;;40.28;17.42;;;;;;;;;;5026307;28;21757;-71
2022/12/29 03:59:44;;;;;;;40.58;17.02;;;;;;;;;;5024899;28;20118;-70
2022/12/29 04:02:11;;;;;;;38.78;17.98;;;;;;;;;;5026787;28;20090;-70
2022/12/29 04:04:37;;;;;;;44.75;22.95;;;;;;;;;;5026669;28;20136;-69
2022/12/29 04:07:04;;;;;;;38.40;17.95;;;;;;;;;;5029830;28;20041;-70
2022/12/29 04:09:35;;;;;;;40.00;17.02;;;;;;;;;;5028826;28;20089;-70
2022/12/29 04:12:01;;;;;;;42.65;18.65;;;;;;;;;;5034265;28;20100;-70
2022/12/29 04:14:28;;;;;;;50.13;19.25;;;;;;;;;;5028203;28;20461;-69
2022/12/29 04:16:54;;;;;;;43.42;21.35;;;;;;;;;;5028547;28;21051;-69
2022/12/29 04:19:21;;;;;;;50.80;19.88;;;;;;;;;;5027897;28;20075;-70
2022/12/29 04:21:48;;;;;;;46.13;18.95;;;;;;;;;;5032314;28;20091;-70
2022/12/29 04:24:14;;;;;;;38.70;17.45;;;;;;;;;;5028237;28;20126;-70
2022/12/29 04:26:44;;;;;;;38.97;18.10;;;;;;;;;;5026953;28;20087;-72
2022/12/29 04:29:11;;;;;;;50.65;20.00;;;;;;;;;;5028880;28;20399;-71
2022/12/29 04:31:37;;;;;;;40.25;18.20;;;;;;;;;;5026275;28;20033;-71
2022/12/29 04:34:04;;;;;;;54.05;21.58;;;;;;;;;;5027018;28;20429;-69
2022/12/29 04:36:31;;;;;;;50.67;22.45;;;;;;;;;;5026304;28;20040;-72
2022/12/29 04:38:57;;;;;;;49.30;19.42;;;;;;;;;;5025635;28;20246;-72
2022/12/29 04:41:24;;;;;;;51.70;22.38;;;;;;;;;;5025253;28;20120;-71
2022/12/29 04:43:53;;;;;;;47.08;20.92;;;;;;;;;;5024944;28;20394;-72
2022/12/29 04:46:20;;;;;;;44.53;22.23;;;;;;;;;;5026673;28;20040;-72
2022/12/29 04:48:47;;;;;;;41.90;18.55;;;;;;;;;;5025196;28;20040;-70
2022/12/29 04:51:13;;;;;;;41.13;20.35;;;;;;;;;;5025298;28;20609;-72
2022/12/29 04:53:42;;;;;;;47.45;20.45;;;;;;;;;;5018049;28;20046;-72
2022/12/29 04:56:09;;;;;;;48.40;21.27;;;;;;;;;;5038765;28;20514;-71
2022/12/29 04:58:36;;;;;;;46.60;22.38;;;;;;;;;;5025776;28;20053;-71
2022/12/29 05:01:03;;;;;;;43.13;20.85;;;;;;;;;;5024159;28;20037;-69
2022/12/29 05:03:30;;;;;;;37.30;18.02;;;;;;;;;;5024166;28;20041;-70
2022/12/29 05:05:57;;;;;;;39.70;18.88;;;;;;;;;;5025805;28;20171;-69
2022/12/29 05:08:24;;;;;;;48.63;18.75;;;;;;;;;;5026016;28;20037;-70
2022/12/29 05:10:53;;;;;;;42.90;19.02;;;;;;;;;;5025940;28;20041;-72
2022/12/29 05:13:20;;;;;;;42.03;18.70;;;;;;;;;;5021884;28;20044;-71
2022/12/29 05:15:51;;;;;;;44.03;19.52;;;;;;;;;;5026079;28;20076;-71
2022/12/29 05:18:18;;;;;;;44.13;20.67;;;;;;;;;;5023640;28;20048;-72
2022/12/29 05:20:44;;;;;;;47.65;20.67;;;;;;;;;;5024927;28;20958;-70
2022/12/29 05:23:11;;;;;;;36.63;17.75;;;;;;;;;;5026277;28;20041;-71
2022/12/29 05:25:38;;;;;;;48.22;20.13;;;;;;;;;;5024218;28;20047;-70
2022/12/29 05:28:04;;;;;;;43.08;18.77;;;;;;;;;;5025645;28;20137;-70
2022/12/29 05:30:31;;;;;;;43.05;18.95;;;;;;;;;;5023490;28;20052;-71
2022/12/29 05:32:58;;;;;;;40.40;17.27;;;;;;;;;;5025201;28;20530;-72
2022/12/29 05:35:25;;;;;;;36.63;16.90;;;;;;;;;;5025919;28;20041;-71
2022/12/29 05:37:51;;;;;;;36.28;16.08;;;;;;;;;;5025342;28;20064;-72
2022/12/29 05:40:18;;;;;;;36.88;16.90;;;;;;;;;;5023722;28;20072;-72
2022/12/29 05:42:44;;;;;;;39.72;16.85;;;;;;;;;;5024296;28;20049;-70
2022/12/29 05:45:11;;;;;;;36.95;17.27;;;;;;;;;;5025708;28;20536;-71
2022/12/29 05:47:38;;;;;;;40.65;17.88;;;;;;;;;;5024710;28;20400;-70
2022/12/29 05:50:05;;;;;;;36.38;16.85;;;;;;;;;;5023292;28;20528;-70
2022/12/29 05:52:31;;;;;;;38.17;17.42;;;;;;;;;;5024556;28;20033;-71
2022/12/29 05:54:58;;;;;;;40.85;17.98;;;;;;;;;;5024187;28;20037;-70
2022/12/29 05:57:25;;;;;;;38.40;17.38;;;;;;;;;;5025094;28;20045;-69
2022/12/29 05:59:51;;;;;;;34.75;17.00;;;;;;;;;;5024670;28;20037;-69
2022/12/29 06:02:18;;;;;;;38.90;17.92;;;;;;;;;;5040656;28;20039;-70
2022/12/29 06:04:44;;;;;;;37.65;18.13;;;;;;;;;;5024476;28;20160;-70
2022/12/29 06:07:11;;;;;;;42.17;17.15;;;;;;;;;;5027156;28;20485;-70
2022/12/29 06:09:38;;;;;;;40.95;18.02;;;;;;;;;;5025997;28;20116;-70
2022/12/29 06:12:05;;;;;;;40.45;17.45;;;;;;;;;;5026941;28;20048;-71
2022/12/29 06:14:31;;;;;;;36.83;17.50;;;;;;;;;;5022956;28;20897;-72
2022/12/29 06:16:58;;;;;;;35.58;17.77;;;;;;;;;;5023456;28;20055;-70
2022/12/29 06:19:25;;;;;;;42.83;18.52;;;;;;;;;;5022014;28;20057;-70
2022/12/29 06:21:52;;;;;;;36.88;17.70;;;;;;;;;;5026980;28;20044;-70
2022/12/29 06:24:19;;;;;;;44.30;18.02;;;;;;;;;;5024789;28;20127;-70
2022/12/29 06:26:45;;;;;;;45.30;18.23;;;;;;;;;;5017770;28;20045;-69
2022/12/29 06:29:16;;;;;;;43.90;19.25;;;;;;;;;;5030678;28;20029;-71
2022/12/29 06:31:45;;;;;;;38.50;18.13;;;;;;;;;;5048368;28;20132;-69
2022/12/29 06:34:12;;;;;;;42.92;18.75;;;;;;;;;;5047572;28;20114;-70
2022/12/29 06:36:39;;;;;;;37.28;18.30;;;;;;;;;;5046326;28;20612;-69
2022/12/29 06:39:06;;;;;;;39.65;18.65;;;;;;;;;;5048717;28;20045;-72
2022/12/29 06:41:33;;;;;;;46.08;19.40;;;;;;;;;;5062945;28;20405;-69
2022/12/29 06:43:59;;;;;;;41.17;18.38;;;;;;;;;;5049490;28;20103;-69
2022/12/29 06:46:26;;;;;;;39.80;18.98;;;;;;;;;;5046722;28;20166;-70
2022/12/29 06:48:53;;;;;;;49.25;19.40;;;;;;;;;;5064260;28;20044;-70
2022/12/29 06:51:19;;;;;;;39.95;19.55;;;;;;;;;;5046359;28;20037;-70
2022/12/29 06:53:46;;;;;;;44.28;18.23;;;;;;;;;;5048389;28;20108;-70
2022/12/29 06:56:13;;;;;;;43.63;18.75;;;;;;;;;;5062006;28;20620;-70
2022/12/29 06:58:39;;;;;;;41.45;19.48;;;;;;;;;;5030709;28;20099;-71
2022/12/29 07:01:06;;;;;;;35.47;17.88;;;;;;;;;;5046559;28;20042;-70
2022/12/29 07:03:33;;;;;;;40.72;18.25;;;;;;;;;;5036206;28;20041;-71
2022/12/29 07:06:00;;;;;;;48.88;20.55;;;;;;;;;;5029292;28;20063;-70
2022/12/29 07:08:26;;;;;;;45.28;19.95;;;;;;;;;;5010308;28;20884;-70
2022/12/29 07:10:53;;;;;;;43.08;19.30;;;;;;;;;;5027447;28;20041;-71
2022/12/29 07:13:19;;;;;;;46.08;19.13;;;;;;;;;;5043366;28;20840;-71
2022/12/29 07:15:46;;;;;;;49.22;20.30;;;;;;;;;;5043539;28;20463;-70
2022/12/29 07:18:13;;;;;;;43.17;20.08;;;;;;;;;;5043093;28;20654;-69
2022/12/29 07:20:42;;;;;;;45.88;19.83;;;;;;;;;;5046164;28;22684;-70
2022/12/29 07:23:09;;;;;;;48.47;19.42;;;;;;;;;;5047275;28;20339;-70
2022/12/29 07:25:35;;;;;;;41.42;20.35;;;;;;;;;;5046438;28;20072;-70
2022/12/29 07:28:03;;;;;;;46.67;20.75;;;;;;;;;;5046232;28;20032;-70
2022/12/29 07:30:29;;;;;;;40.45;19.42;;;;;;;;;;5039485;28;20095;-70
2022/12/29 07:32:56;;;;;;;46.65;22.00;;;;;;;;;;5048115;28;20055;-69
2022/12/29 07:35:22;;;;;;;47.67;19.90;;;;;;;;;;5046451;28;20045;-69
2022/12/29 07:37:50;;;;;;;49.40;21.73;;;;;;;;;;5046691;28;20064;-69
2022/12/29 07:40:16;;;;;;;50.03;20.95;;;;;;;;;;5046618;28;21789;-71
2022/12/29 07:42:43;;;;;;;48.22;19.48;;;;;;;;;;5047856;28;21859;-70
2022/12/29 07:45:10;;;;;;;53.85;19.98;;;;;;;;;;5048139;28;20059;-70
2022/12/29 07:47:36;;;;;;;49.00;20.73;;;;;;;;;;5033305;28;20116;-70
2022/12/29 07:50:03;;;;;;;42.67;20.90;;;;;;;;;;5037566;28;20079;-70
2022/12/29 07:52:30;;;;;;;42.22;20.67;;;;;;;;;;5029104;28;20194;-69
2022/12/29 07:54:57;;;;;;;44.72;21.08;;;;;;;;;;5029403;28;20068;-69
2022/12/29 07:57:23;;;;;;;48.65;20.70;;;;;;;;;;5030011;28;20399;-70
2022/12/29 07:59:50;;;;;;;46.85;20.95;;;;;;;;;;5028542;28;20049;-71
2022/12/29 08:02:16;;;;;;;43.38;21.33;;;;;;;;;;5028268;28;20037;-70
2022/12/29 08:04:43;;;;;;;55.88;20.33;;;;;;;;;;5026864;28;20426;-71
2022/12/29 08:07:10;;;;;;;48.45;22.25;;;;;;;;;;5026706;28;20043;-69
2022/12/29 08:09:36;;;;;;;45.22;21.00;;;;;;;;;;5027820;28;20076;-70
2022/12/29 08:12:03;;;;;;;50.72;22.27;;;;;;;;;;5026606;28;20065;-71
2022/12/29 08:14:30;;;;;;;49.17;20.55;;;;;;;;;;5028807;28;21797;-70
2022/12/29 08:16:56;;;;;;;54.47;21.25;;;;;;;;;;5027693;28;20128;-71
2022/12/29 08:19:23;;;;;;;51.17;22.25;;;;;;;;;;5025775;28;20041;-70
2022/12/29 08:21:51;;;;;;;55.38;22.15;;;;;;;;;;5042162;28;20112;-70
2022/12/29 08:24:17;;;;;;;42.25;20.35;;;;;;;;;;5028422;28;20037;-71
2022/12/29 08:26:44;;;;;;;48.78;21.50;;;;;;;;;;5025887;28;20036;-71
2022/12/29 08:29:10;;;;;;;39.42;19.77;;;;;;;;;;5039642;28;20577;-70
2022/12/29 08:31:37;;;;;;;49.85;21.20;;;;;;;;;;5028882;28;20179;-71
2022/12/29 08:34:04;;;;;;;46.40;21.67;;;;;;;;;;5014442;28;20059;-70
2022/12/29 08:36:31;;;;;;;51.17;21.17;;;;;;;;;;5028318;28;20040;-70
2022/12/29 08:38:58;;;;;;;47.75;20.95;;;;;;;;;;5027097;28;20079;-71
2022/12/29 08:41:24;;;;;;;46.45;20.88;;;;;;;;;;5026465;28;20445;-71
2022/12/29 08:43:51;;;;;;;48.92;21.70;;;;;;;;;;5043601;28;20161;-70
2022/12/29 08:46:19;;;;;;;42.83;20.73;;;;;;;;;;5028907;28;20049;-71
2022/12/29 08:48:45;;;;;;;49.38;21.88;;;;;;;;;;5027610;28;20496;-71
2022/12/29 08:51:12;;;;;;;41.25;20.90;;;;;;;;;;5028853;28;20037;-70
2022/12/29 08:53:39;;;;;;;52.08;22.13;;;;;;;;;;5029845;28;20042;-70
2022/12/29 08:56:06;;;;;;;46.70;22.02;;;;;;;;;;5028180;28;20041;-70
2022/12/29 08:58:33;;;;;;;46.67;20.23;;;;;;;;;;5025782;28;20042;-70
2022/12/29 09:00:59;;;;;;;51.38;21.20;;;;;;;;;;5027657;28;20060;-71
2022/12/29 09:03:26;;;;;;;40.50;20.65;;;;;;;;;;5024537;28;20825;-70
2022/12/29 09:05:54;;;;;;;44.55;21.45;;;;;;;;;;5026074;28;20453;-71
2022/12/29 09:08:20;;;;;;;42.35;20.42;;;;;;;;;;5023491;28;20045;-71
2022/12/29 09:10:47;;;;;;;52.80;21.75;;;;;;;;;;5023851;28;20037;-71
2022/12/29 09:13:15;;;;;;;48.22;21.40;;;;;;;;;;5027168;28;20091;-69
2022/12/29 09:15:42;;;;;;;50.58;22.40;;;;;;;;;;5024413;28;20524;-70
2022/12/29 09:18:10;;;;;;;40.55;20.75;;;;;;;;;;5024839;28;20055;-70
2022/12/29 09:20:36;;;;;;;46.67;22.23;;;;;;;;;;5024955;28;20044;-69
2022/12/29 09:23:03;;;;;;;48.03;22.08;;;;;;;;;;5024548;28;20041;-69
2022/12/29 09:25:30;;;;;;;47.35;21.73;;;;;;;;;;5039298;28;20045;-71
2022/12/29 09:27:57;;;;;;;49.50;21.38;;;;;;;;;;5025904;28;20105;-70
2022/12/29 09:30:24;;;;;;;40.08;20.75;;;;;;;;;;5023422;28;20131;-69
2022/12/29 09:32:50;;;;;;;44.10;21.45;;;;;;;;;;5025081;28;20130;-71
2022/12/29 09:35:17;;;;;;;49.42;21.75;;;;;;;;;;5025451;28;20132;-70
2022/12/29 09:37:44;;;;;;;47.28;20.60;;;;;;;;;;5023458;28;20152;-70
2022/12/29 09:40:25;;;;;;;50.97;22.10;;;;;;;;;;5024646;28;20045;-70
2022/12/29 09:43:18;;;;;;;53.45;22.75;;;;;;;;;;5023419;28;20141;-70
2022/12/29 09:45:46;;;;;;;40.50;21.05;;;;;;;;;;5025159;28;20046;-70
2022/12/29 09:48:17;;;;;;;42.58;19.80;;;;;;;;;;5023149;28;20051;-70
2022/12/29 09:50:45;;;;;;;45.95;22.20;;;;;;;;;;5025135;28;20121;-69
2022/12/29 09:53:18;;;;;;;50.00;21.92;;;;;;;;;;5022444;28;20445;-71
2022/12/29 09:55:49;;;;;;;53.13;22.20;;;;;;;;;;5026467;28;20041;-69
2022/12/29 09:58:22;;;;;;;46.17;21.38;;;;;;;;;;5024790;28;20045;-72
2022/12/29 10:00:50;;;;;;;46.75;22.02;;;;;;;;;;5024898;28;20053;-69
2022/12/29 10:03:18;;;;;;;46.42;20.55;;;;;;;;;;5027152;28;20044;-71
2022/12/29 10:05:50;;;;;;;45.47;22.48;;;;;;;;;;5027556;28;20045;-71
2022/12/29 10:08:28;;;;;;;47.65;21.38;;;;;;;;;;5029785;28;20045;-70
2022/12/29 10:10:56;;;;;;;44.08;20.98;;;;;;;;;;5056180;28;20041;-70
2022/12/29 10:13:41;;;;;;;55.90;22.33;;;;;;;;;;5025686;28;20073;-70
2022/12/29 10:16:26;;;;;;;55.67;22.33;;;;;;;;;;5027693;28;20037;-73
2022/12/29 10:18:53;;;;;;;49.17;23.35;;;;;;;;;;5055724;28;20541;-71
2022/12/29 10:21:37;;;;;;;53.58;23.05;;;;;;;;;;5032896;28;20040;-70
2022/12/29 10:24:06;;;;;;;48.15;21.50;;;;;;;;;;5048499;28;20514;-70
2022/12/29 10:26:37;;;;;;;49.03;22.27;;;;;;;;;;5047016;28;20044;-70
2022/12/29 10:29:12;;;;;;;55.65;23.90;;;;;;;;;;5047772;28;20381;-70
2022/12/29 10:31:47;;;;;;;49.75;23.00;;;;;;;;;;5047655;28;20127;-71
2022/12/29 10:34:33;;;;;;;52.03;22.92;;;;;;;;;;5046836;28;20045;-70
2022/12/29 10:37:22;;;;;;;50.80;21.20;;;;;;;;;;5040241;28;20040;-70
2022/12/29 10:39:55;;;;;;;39.05;20.77;;;;;;;;;;5027017;28;20044;-69
2022/12/29 10:42:29;;;;;;;50.22;23.02;;;;;;;;;;5042574;28;20034;-69
2022/12/29 10:44:57;;;;;;;54.40;23.85;;;;;;;;;;5027384;28;20064;-69
2022/12/29 10:47:29;;;;;;;49.22;20.38;;;;;;;;;;5028044;28;20049;-69
2022/12/29 10:49:55;;;;;;;48.75;22.45;;;;;;;;;;5027999;28;20063;-70
2022/12/29 10:52:23;;;;;;;51.42;23.08;;;;;;;;;;5027235;28;20103;-71
2022/12/29 10:54:55;;;;;;;51.15;21.83;;;;;;;;;;5027669;28;20048;-70
2022/12/29 10:57:25;;;;;;;47.15;22.33;;;;;;;;;;5027861;28;20037;-71
2022/12/29 10:59:51;;;;;;;47.15;22.20;;;;;;;;;;5028741;28;20041;-70
2022/12/29 11:02:18;;;;;;;48.47;22.85;;;;;;;;;;5029296;28;20671;-71
2022/12/29 11:05:03;;;;;;;46.92;22.98;;;;;;;;;;5028239;28;20037;-71
2022/12/29 11:07:30;;;;;;;51.90;23.13;;;;;;;;;;5028159;28;20038;-68
2022/12/29 11:10:16;;;;;;;50.88;22.92;;;;;;;;;;5027238;28;21775;-69
2022/12/29 11:12:55;;;;;;;56.85;23.20;;;;;;;;;;5027152;28;20551;-70
2022/12/29 11:15:22;;;;;;;52.58;22.13;;;;;;;;;;5027293;28;20136;-70
2022/12/29 11:17:50;;;;;;;57.28;22.92;;;;;;;;;;5028253;28;20098;-70
2022/12/29 11:20:20;;;;;;;55.58;23.30;;;;;;;;;;5027535;28;20036;-70
2022/12/29 11:22:47;;;;;;;59.45;23.35;;;;;;;;;;5027684;28;20041;-69
2022/12/29 11:25:14;;;;;;;50.05;23.17;;;;;;;;;;5027926;28;20076;-69
2022/12/29 11:27:48;;;;;;;49.97;23.50;;;;;;;;;;5026663;28;20064;-71
2022/12/29 11:30:33;;;;;;;51.28;22.65;;;;;;;;;;5029379;28;20064;-70
2022/12/29 11:33:04;;;;;;;59.72;22.95;;;;;;;;;;5028792;28;20033;-70
2022/12/29 11:35:41;;;;;;;51.03;23.77;;;;;;;;;;5026389;28;20033;-69
2022/12/29 11:38:28;;;;;;;46.70;23.20;;;;;;;;;;5026475;28;20108;-69
2022/12/29 11:40:55;;;;;;;59.38;23.10;;;;;;;;;;5038327;28;20159;-70
2022/12/29 11:43:29;;;;;;;59.13;23.77;;;;;;;;;;5047915;28;20048;-70
2022/12/29 11:45:56;;;;;;;52.85;22.83;;;;;;;;;;5044985;28;20063;-70
2022/12/29 11:48:23;;;;;;;54.22;23.23;;;;;;;;;;5047593;28;20048;-69
2022/12/29 11:50:54;;;;;;;56.45;23.40;;;;;;;;;;5046677;28;20034;-70
2022/12/29 11:53:22;;;;;;;51.03;23.55;;;;;;;;;;5047559;28;20536;-70
2022/12/29 11:56:01;;;;;;;55.17;22.52;;;;;;;;;;5046540;28;20036;-70
2022/12/29 11:58:32;;;;;;;53.05;21.48;;;;;;;;;;5044204;28;20041;-69
2022/12/29 12:01:07;;;;;;;51.50;23.50;;;;;;;;;;5045547;28;20521;-71
2022/12/29 12:03:36;;;;;;;43.58;21.45;;;;;;;;;;5043711;28;20082;-68
2022/12/29 12:06:03;;;;;;;52.78;22.63;;;;;;;;;;5047706;28;20047;-70
2022/12/29 12:08:29;;;;;;;51.05;21.67;;;;;;;;;;5050060;28;20171;-70
2022/12/29 12:11:15;;;;;;;56.95;22.27;;;;;;;;;;5047927;28;20150;-70
2022/12/29 12:13:48;;;;;;;51.50;21.83;;;;;;;;;;5049716;28;20458;-71
2022/12/29 12:16:23;;;;;;;47.05;20.80;;;;;;;;;;5046047;28;20036;-68
2022/12/29 12:18:50;;;;;;;54.67;21.73;;;;;;;;;;5044082;28;20064;-69
2022/12/29 12:21:21;;;;;;;46.92;20.73;;;;;;;;;;5046218;28;20041;-71
2022/12/29 12:24:06;;;;;;;50.95;21.40;;;;;;;;;;5032403;28;20516;-70
2022/12/29 12:26:38;;;;;;;41.22;19.50;;;;;;;;;;5044051;28;20045;-69
2022/12/29 12:29:11;;;;;;;41.08;19.30;;;;;;;;;;5045977;28;20443;-70
2022/12/29 12:31:44;;;;;;;49.93;19.70;;;;;;;;;;5043467;28;20044;-69
2022/12/29 12:34:44;;;;;;;49.47;19.35;;;;;;;;;;5044873;28;20498;-70
2022/12/29 12:37:29;;;;;;;41.85;18.25;;;;;;;;;;5035704;28;20119;-69
2022/12/29 12:40:14;;;;;;;45.22;18.85;;;;;;;;;;5043908;28;20128;-71
2022/12/29 12:43:00;;;;;;;41.92;18.58;;;;;;;;;;5044125;28;20083;-69
2022/12/29 12:45:29;;;;;;;38.67;18.17;;;;;;;;;;5044802;28;20049;-68
2022/12/29 12:48:17;;;;;;;43.10;16.10;;;;;;;;;;5044921;28;20049;-68
2022/12/29 12:50:56;;;;;;;51.95;19.50;;;;;;;;;;5042940;28;20171;-69
2022/12/29 12:53:30;;;;;;;48.13;19.00;;;;;;;;;;5044228;28;20361;-68
2022/12/29 12:55:56;;;;;;;48.15;19.05;;;;;;;;;;5043234;28;21768;-72
2022/12/29 12:58:41;;;;;;;47.28;20.45;;;;;;;;;;5029501;28;20045;-69
2022/12/29 13:01:22;;;;;;;47.80;20.52;;;;;;;;;;5047463;28;20603;-70
2022/12/29 13:04:03;;;;;;;44.92;18.88;;;;;;;;;;5043247;28;20059;-71
2022/12/29 13:06:41;;;;;;;42.88;18.13;;;;;;;;;;5043418;28;20029;-71
2022/12/29 13:09:27;;;;;;;42.38;18.75;;;;;;;;;;5046280;28;20158;-71
2022/12/29 13:12:07;;;;;;;54.65;19.25;;;;;;;;;;5037332;28;20111;-70
2022/12/29 13:14:34;;;;;;;36.90;19.15;;;;;;;;;;5024695;28;20083;-70
2022/12/29 13:17:22;;;;;;;50.95;20.23;;;;;;;;;;5020234;28;20053;-69
2022/12/29 13:19:56;;;;;;;44.30;18.83;;;;;;;;;;5054360;28;20556;-70
2022/12/29 13:22:35;;;;;;;43.67;18.88;;;;;;;;;;5029040;28;20065;-70
2022/12/29 13:25:07;;;;;;;41.03;19.20;;;;;;;;;;5029133;28;20064;-71
2022/12/29 13:27:54;;;;;;;41.45;19.45;;;;;;;;;;5023558;28;20069;-70
2022/12/29 13:30:24;;;;;;;40.60;17.20;;;;;;;;;;5023377;28;20033;-71
2022/12/29 13:33:09;;;;;;;47.97;17.77;;;;;;;;;;5046553;28;20045;-71
2022/12/29 13:35:36;;;;;;;44.28;18.65;;;;;;;;;;5040641;28;20045;-69
2022/12/29 13:38:16;;;;;;;46.42;17.98;;;;;;;;;;5058319;28;20053;-70
2022/12/29 13:40:46;;;;;;;40.60;18.77;;;;;;;;;;5041990;28;20116;-67
2022/12/29 13:43:14;;;;;;;44.25;18.58;;;;;;;;;;5026552;28;20166;-68
2022/12/29 13:45:41;;;;;;;43.92;20.10;;;;;;;;;;5028441;28;20045;-67
2022/12/29 13:48:16;;;;;;;47.58;19.77;;;;;;;;;;5047617;28;20045;-69
2022/12/29 13:50:46;;;;;;;42.38;19.67;;;;;;;;;;5048666;28;20052;-70
2022/12/29 13:53:20;;;;;;;47.33;21.08;;;;;;;;;;5049802;28;20092;-68
2022/12/29 13:55:46;;;;;;;43.10;20.45;;;;;;;;;;5048966;28;20048;-70
2022/12/29 13:58:23;;;;;;;42.53;20.45;;;;;;;;;;5049786;28;20041;-70
2022/12/29 14:00:56;;;;;;;52.05;20.85;;;;;;;;;;5060811;28;20065;-69
2022/12/29 14:03:44;;;;;;;48.75;21.00;;;;;;;;;;5063560;28;20041;-68
2022/12/29 14:06:26;;;;;;;47.22;21.13;;;;;;;;;;5051751;28;20036;-67
2022/12/29 14:08:54;;;;;;;54.97;19.95;;;;;;;;;;5035665;28;20037;-68
2022/12/29 14:11:24;;;;;;;46.22;22.05;;;;;;;;;;5028965;28;20166;-69
2022/12/29 14:13:51;;;;;;;57.38;20.27;;;;;;;;;;5028144;28;20048;-69
2022/12/29 14:16:29;;;;;;;43.63;19.70;;;;;;;;;;5028753;28;20259;-69
2022/12/29 14:18:58;;;;;;;41.50;18.95;;;;;;;;;;5030812;28;20459;-69
2022/12/29 14:21:30;;;;;;;42.45;19.92;;;;;;;;;;5027294;28;20033;-68
2022/12/29 14:24:16;;;;;;;46.40;19.75;;;;;;;;;;5031090;28;20454;-70
2022/12/29 14:26:43;;;;;;;48.85;19.48;;;;;;;;;;5051611;28;20077;-69
2022/12/29 14:29:36;;;;;;;47.92;20.30;;;;;;;;;;5051043;28;20040;-70
2022/12/29 14:32:03;;;;;;;52.20;19.27;;;;;;;;;;5046277;28;20505;-70
2022/12/29 14:34:31;;;;;;;43.83;19.38;;;;;;;;;;5050197;28;20515;-70
2022/12/29 14:36:59;;;;;;;37.45;18.50;;;;;;;;;;5043733;28;20183;-69
2022/12/29 14:39:35;;;;;;;46.80;20.88;;;;;;;;;;5045567;28;20041;-69
2022/12/29 14:42:01;;;;;;;41.28;19.27;;;;;;;;;;5043527;28;20044;-70
2022/12/29 14:44:28;;;;;;;44.30;20.75;;;;;;;;;;5043387;28;20041;-70
2022/12/29 14:46:57;;;;;;;49.67;19.83;;;;;;;;;;5042387;28;20112;-70
2022/12/29 14:49:29;;;;;;;49.28;19.17;;;;;;;;;;5045034;28;20052;-67
2022/12/29 14:52:05;;;;;;;44.22;18.70;;;;;;;;;;5020508;28;20044;-70
2022/12/29 14:54:32;;;;;;;49.67;18.55;;;;;;;;;;5034784;28;20041;-69
2022/12/29 14:57:03;;;;;;;39.95;17.70;;;;;;;;;;5029794;28;20494;-69
2022/12/29 14:59:30;;;;;;;44.85;19.00;;;;;;;;;;5029231;28;20106;-68
2022/12/29 15:01:57;;;;;;;45.58;18.67;;;;;;;;;;5029890;28;20152;-68
2022/12/29 15:04:27;;;;;;;42.30;18.02;;;;;;;;;;5029282;28;20048;-69
2022/12/29 15:06:54;;;;;;;41.30;18.60;;;;;;;;;;5027501;28;20052;-69
2022/12/29 15:09:39;;;;;;;46.10;18.67;;;;;;;;;;5033291;28;20052;-71
2022/12/29 15:12:21;;;;;;;53.45;18.17;;;;;;;;;;5028507;28;20056;-68
2022/12/29 15:14:55;;;;;;;37.42;17.40;;;;;;;;;;5050269;28;20121;-70